sensor_id;sensor_type;location;lat;lon;timestamp;P1;durP1;ratioP1;P2;durP2;ratioP2
16813;SDS011;8524;57.650;11.926;2022-08-23T00:02:03;2.87;;;1.80;;
16813;SDS011;8524;57.650;11.926;2022-08-23T00:04:34;1.90;;;1.80;;
16813;SDS011;8524;57.650;11.926;2022-08-23T00:07:02;1.63;;;1.53;;
16813;SDS011;8524;57.650;11.926;2022-08-23T00:09:30;2.03;;;1.70;;
16813;SDS011;8524;57.650;11.926;2022-08-23T00:12:02;1.93;;;1.73;;
16813;SDS011;8524;57.650;11.926;2022-08-23T00:14:36;2.77;;;1.77;;
16813;SDS011;8524;57.650;11.926;2022-08-23T00:17:07;2.57;;;1.90;;
16813;SDS011;8524;57.650;11.926;2022-08-23T00:19:35;1.60;;;1.50;;
16813;SDS011;8524;57.650;11.926;2022-08-23T00:22:03;2.70;;;1.93;;
16813;SDS011;8524;57.650;11.926;2022-08-23T00:24:31;1.87;;;1.57;;
16813;SDS011;8524;57.650;11.926;2022-08-23T00:26:59;2.30;;;2.10;;
16813;SDS011;8524;57.650;11.926;2022-08-23T00:29:32;1.73;;;1.60;;
16813;SDS011;8524;57.650;11.926;2022-08-23T00:32:04;2.23;;;1.63;;
16813;SDS011;8524;57.650;11.926;2022-08-23T00:34:32;2.83;;;2.17;;
16813;SDS011;8524;57.650;11.926;2022-08-23T00:37:00;2.73;;;1.90;;
16813;SDS011;8524;57.650;11.926;2022-08-23T00:39:27;2.70;;;1.97;;
16813;SDS011;8524;57.650;11.926;2022-08-23T00:41:55;2.00;;;1.77;;
16813;SDS011;8524;57.650;11.926;2022-08-23T00:44:27;3.20;;;1.63;;
16813;SDS011;8524;57.650;11.926;2022-08-23T00:47:17;2.10;;;1.77;;
16813;SDS011;8524;57.650;11.926;2022-08-23T00:50:12;2.63;;;1.80;;
16813;SDS011;8524;57.650;11.926;2022-08-23T00:52:48;2.43;;;1.80;;
16813;SDS011;8524;57.650;11.926;2022-08-23T00:55:29;2.47;;;1.93;;
16813;SDS011;8524;57.650;11.926;2022-08-23T00:57:57;2.03;;;1.80;;
16813;SDS011;8524;57.650;11.926;2022-08-23T01:00:26;3.67;;;2.13;;
16813;SDS011;8524;57.650;11.926;2022-08-23T01:02:55;2.67;;;1.83;;
16813;SDS011;8524;57.650;11.926;2022-08-23T01:05:22;1.93;;;1.67;;
16813;SDS011;8524;57.650;11.926;2022-08-23T01:07:54;2.60;;;1.87;;
16813;SDS011;8524;57.650;11.926;2022-08-23T01:10:26;2.27;;;2.00;;
16813;SDS011;8524;57.650;11.926;2022-08-23T01:12:57;1.90;;;1.70;;
16813;SDS011;8524;57.650;11.926;2022-08-23T01:15:29;2.53;;;1.90;;
16813;SDS011;8524;57.650;11.926;2022-08-23T01:18:02;2.17;;;1.70;;
16813;SDS011;8524;57.650;11.926;2022-08-23T01:20:34;2.60;;;2.03;;
16813;SDS011;8524;57.650;11.926;2022-08-23T01:23:28;2.37;;;1.80;;
16813;SDS011;8524;57.650;11.926;2022-08-23T01:25:59;2.40;;;2.20;;
16813;SDS011;8524;57.650;11.926;2022-08-23T01:28:26;2.87;;;2.30;;
16813;SDS011;8524;57.650;11.926;2022-08-23T01:30:53;2.20;;;1.70;;
16813;SDS011;8524;57.650;11.926;2022-08-23T01:33:21;2.30;;;2.10;;
16813;SDS011;8524;57.650;11.926;2022-08-23T01:35:48;2.77;;;2.10;;
16813;SDS011;8524;57.650;11.926;2022-08-23T01:38:18;3.03;;;2.00;;
16813;SDS011;8524;57.650;11.926;2022-08-23T01:40:46;2.43;;;1.97;;
16813;SDS011;8524;57.650;11.926;2022-08-23T01:43:14;2.03;;;1.90;;
16813;SDS011;8524;57.650;11.926;2022-08-23T01:45:44;2.40;;;1.83;;
16813;SDS011;8524;57.650;11.926;2022-08-23T01:48:12;1.97;;;1.80;;
16813;SDS011;8524;57.650;11.926;2022-08-23T01:50:39;2.20;;;2.00;;
16813;SDS011;8524;57.650;11.926;2022-08-23T01:53:07;2.07;;;1.87;;
16813;SDS011;8524;57.650;11.926;2022-08-23T01:55:34;3.20;;;2.10;;
16813;SDS011;8524;57.650;11.926;2022-08-23T01:58:04;2.10;;;1.90;;
16813;SDS011;8524;57.650;11.926;2022-08-23T02:00:32;2.27;;;1.93;;
16813;SDS011;8524;57.650;11.926;2022-08-23T02:03:01;2.20;;;2.00;;
16813;SDS011;8524;57.650;11.926;2022-08-23T02:05:29;2.87;;;1.97;;
16813;SDS011;8524;57.650;11.926;2022-08-23T02:07:57;3.70;;;2.30;;
16813;SDS011;8524;57.650;11.926;2022-08-23T02:10:45;2.40;;;2.20;;
16813;SDS011;8524;57.650;11.926;2022-08-23T02:13:13;2.47;;;1.97;;
16813;SDS011;8524;57.650;11.926;2022-08-23T02:15:41;2.57;;;1.80;;
16813;SDS011;8524;57.650;11.926;2022-08-23T02:18:09;2.80;;;2.03;;
16813;SDS011;8524;57.650;11.926;2022-08-23T02:20:37;3.23;;;2.30;;
16813;SDS011;8524;57.650;11.926;2022-08-23T02:23:08;2.00;;;1.90;;
16813;SDS011;8524;57.650;11.926;2022-08-23T02:25:35;2.50;;;2.13;;
16813;SDS011;8524;57.650;11.926;2022-08-23T02:28:03;2.20;;;2.00;;
16813;SDS011;8524;57.650;11.926;2022-08-23T02:30:31;2.53;;;2.00;;
16813;SDS011;8524;57.650;11.926;2022-08-23T02:32:59;3.30;;;2.20;;
16813;SDS011;8524;57.650;11.926;2022-08-23T02:35:26;3.83;;;2.30;;
16813;SDS011;8524;57.650;11.926;2022-08-23T02:37:53;2.20;;;2.00;;
16813;SDS011;8524;57.650;11.926;2022-08-23T02:40:20;2.30;;;2.10;;
16813;SDS011;8524;57.650;11.926;2022-08-23T02:42:47;2.47;;;2.27;;
16813;SDS011;8524;57.650;11.926;2022-08-23T02:45:14;2.30;;;2.00;;
16813;SDS011;8524;57.650;11.926;2022-08-23T02:47:43;3.90;;;2.10;;
16813;SDS011;8524;57.650;11.926;2022-08-23T02:50:10;3.33;;;2.13;;
16813;SDS011;8524;57.650;11.926;2022-08-23T02:52:37;3.40;;;2.20;;
16813;SDS011;8524;57.650;11.926;2022-08-23T02:55:05;3.07;;;2.30;;
16813;SDS011;8524;57.650;11.926;2022-08-23T02:57:32;3.97;;;2.57;;
16813;SDS011;8524;57.650;11.926;2022-08-23T02:59:59;3.37;;;2.43;;
16813;SDS011;8524;57.650;11.926;2022-08-23T03:02:26;2.63;;;2.00;;
16813;SDS011;8524;57.650;11.926;2022-08-23T03:04:55;2.30;;;2.10;;
16813;SDS011;8524;57.650;11.926;2022-08-23T03:07:22;3.10;;;2.20;;
16813;SDS011;8524;57.650;11.926;2022-08-23T03:09:49;2.33;;;2.13;;
16813;SDS011;8524;57.650;11.926;2022-08-23T03:12:16;2.20;;;2.00;;
16813;SDS011;8524;57.650;11.926;2022-08-23T03:14:43;2.70;;;2.30;;
16813;SDS011;8524;57.650;11.926;2022-08-23T03:17:10;2.63;;;2.30;;
16813;SDS011;8524;57.650;11.926;2022-08-23T03:19:37;3.00;;;2.60;;
16813;SDS011;8524;57.650;11.926;2022-08-23T03:22:06;2.30;;;1.90;;
16813;SDS011;8524;57.650;11.926;2022-08-23T03:24:33;2.37;;;2.13;;
16813;SDS011;8524;57.650;11.926;2022-08-23T03:27:00;2.40;;;2.10;;
16813;SDS011;8524;57.650;11.926;2022-08-23T03:29:27;2.77;;;2.33;;
16813;SDS011;8524;57.650;11.926;2022-08-23T03:31:55;4.20;;;2.57;;
16813;SDS011;8524;57.650;11.926;2022-08-23T03:34:23;2.33;;;2.13;;
16813;SDS011;8524;57.650;11.926;2022-08-23T03:36:50;3.17;;;2.73;;
16813;SDS011;8524;57.650;11.926;2022-08-23T03:39:18;3.33;;;2.30;;
16813;SDS011;8524;57.650;11.926;2022-08-23T03:41:45;3.93;;;2.23;;
16813;SDS011;8524;57.650;11.926;2022-08-23T03:44:12;3.17;;;2.40;;
16813;SDS011;8524;57.650;11.926;2022-08-23T03:46:39;3.63;;;2.20;;
16813;SDS011;8524;57.650;11.926;2022-08-23T03:49:06;2.70;;;2.10;;
16813;SDS011;8524;57.650;11.926;2022-08-23T03:51:33;2.63;;;2.37;;
16813;SDS011;8524;57.650;11.926;2022-08-23T03:54:00;3.77;;;2.47;;
16813;SDS011;8524;57.650;11.926;2022-08-23T03:56:30;3.33;;;2.20;;
16813;SDS011;8524;57.650;11.926;2022-08-23T03:59:00;2.37;;;2.17;;
16813;SDS011;8524;57.650;11.926;2022-08-23T04:01:29;4.23;;;2.43;;
16813;SDS011;8524;57.650;11.926;2022-08-23T04:03:56;2.77;;;2.30;;
16813;SDS011;8524;57.650;11.926;2022-08-23T04:06:24;1.90;;;1.70;;
16813;SDS011;8524;57.650;11.926;2022-08-23T04:08:52;2.70;;;2.50;;
16813;SDS011;8524;57.650;11.926;2022-08-23T04:11:19;2.83;;;2.00;;
16813;SDS011;8524;57.650;11.926;2022-08-23T04:13:48;3.10;;;2.10;;
16813;SDS011;8524;57.650;11.926;2022-08-23T04:16:15;3.17;;;2.40;;
16813;SDS011;8524;57.650;11.926;2022-08-23T04:18:43;2.87;;;2.20;;
16813;SDS011;8524;57.650;11.926;2022-08-23T04:21:13;2.10;;;2.00;;
16813;SDS011;8524;57.650;11.926;2022-08-23T04:23:42;2.90;;;2.23;;
16813;SDS011;8524;57.650;11.926;2022-08-23T04:26:09;2.83;;;2.23;;
16813;SDS011;8524;57.650;11.926;2022-08-23T04:28:37;2.30;;;2.10;;
16813;SDS011;8524;57.650;11.926;2022-08-23T04:31:05;2.60;;;2.40;;
16813;SDS011;8524;57.650;11.926;2022-08-23T04:33:33;2.43;;;2.23;;
16813;SDS011;8524;57.650;11.926;2022-08-23T04:36:01;2.73;;;2.00;;
16813;SDS011;8524;57.650;11.926;2022-08-23T04:38:29;2.47;;;2.27;;
16813;SDS011;8524;57.650;11.926;2022-08-23T04:40:57;2.63;;;2.00;;
16813;SDS011;8524;57.650;11.926;2022-08-23T04:43:42;2.53;;;2.13;;
16813;SDS011;8524;57.650;11.926;2022-08-23T04:46:11;2.90;;;2.53;;
16813;SDS011;8524;57.650;11.926;2022-08-23T04:48:39;3.10;;;2.70;;
16813;SDS011;8524;57.650;11.926;2022-08-23T04:51:07;2.90;;;2.70;;
16813;SDS011;8524;57.650;11.926;2022-08-23T04:53:34;3.53;;;3.07;;
16813;SDS011;8524;57.650;11.926;2022-08-23T04:56:02;2.97;;;2.50;;
16813;SDS011;8524;57.650;11.926;2022-08-23T04:58:31;5.13;;;2.70;;
16813;SDS011;8524;57.650;11.926;2022-08-23T05:00:59;2.87;;;2.50;;
16813;SDS011;8524;57.650;11.926;2022-08-23T05:03:29;2.47;;;2.23;;
16813;SDS011;8524;57.650;11.926;2022-08-23T05:05:57;3.10;;;2.30;;
16813;SDS011;8524;57.650;11.926;2022-08-23T05:08:25;2.63;;;2.40;;
16813;SDS011;8524;57.650;11.926;2022-08-23T05:10:52;3.90;;;2.20;;
16813;SDS011;8524;57.650;11.926;2022-08-23T05:13:19;3.70;;;2.67;;
16813;SDS011;8524;57.650;11.926;2022-08-23T05:15:48;2.83;;;2.60;;
16813;SDS011;8524;57.650;11.926;2022-08-23T05:18:16;2.83;;;2.57;;
16813;SDS011;8524;57.650;11.926;2022-08-23T05:20:45;2.90;;;2.30;;
16813;SDS011;8524;57.650;11.926;2022-08-23T05:23:12;2.60;;;2.33;;
16813;SDS011;8524;57.650;11.926;2022-08-23T05:25:39;2.80;;;2.30;;
16813;SDS011;8524;57.650;11.926;2022-08-23T05:28:18;3.53;;;2.33;;
16813;SDS011;8524;57.650;11.926;2022-08-23T05:30:54;3.13;;;2.50;;
16813;SDS011;8524;57.650;11.926;2022-08-23T05:33:23;4.80;;;2.70;;
16813;SDS011;8524;57.650;11.926;2022-08-23T05:35:52;3.07;;;2.60;;
16813;SDS011;8524;57.650;11.926;2022-08-23T05:38:19;3.57;;;2.40;;
16813;SDS011;8524;57.650;11.926;2022-08-23T05:40:47;3.00;;;2.40;;
16813;SDS011;8524;57.650;11.926;2022-08-23T05:43:15;4.43;;;2.70;;
16813;SDS011;8524;57.650;11.926;2022-08-23T05:45:42;4.50;;;2.70;;
16813;SDS011;8524;57.650;11.926;2022-08-23T05:48:10;5.03;;;2.57;;
16813;SDS011;8524;57.650;11.926;2022-08-23T05:50:37;3.10;;;2.80;;
16813;SDS011;8524;57.650;11.926;2022-08-23T05:53:06;4.53;;;2.77;;
16813;SDS011;8524;57.650;11.926;2022-08-23T05:55:34;4.00;;;2.50;;
16813;SDS011;8524;57.650;11.926;2022-08-23T05:58:02;3.93;;;2.43;;
16813;SDS011;8524;57.650;11.926;2022-08-23T06:00:29;6.50;;;2.13;;
16813;SDS011;8524;57.650;11.926;2022-08-23T06:02:56;4.37;;;2.13;;
16813;SDS011;8524;57.650;11.926;2022-08-23T06:05:23;5.30;;;2.50;;
16813;SDS011;8524;57.650;11.926;2022-08-23T06:07:51;3.93;;;2.50;;
16813;SDS011;8524;57.650;11.926;2022-08-23T06:10:19;5.77;;;2.30;;
16813;SDS011;8524;57.650;11.926;2022-08-23T06:12:46;6.50;;;3.03;;
16813;SDS011;8524;57.650;11.926;2022-08-23T06:15:14;4.43;;;2.40;;
16813;SDS011;8524;57.650;11.926;2022-08-23T06:17:41;3.20;;;1.70;;
16813;SDS011;8524;57.650;11.926;2022-08-23T06:20:08;3.53;;;1.93;;
16813;SDS011;8524;57.650;11.926;2022-08-23T06:22:36;5.43;;;2.37;;
16813;SDS011;8524;57.650;11.926;2022-08-23T06:25:03;5.43;;;2.67;;
16813;SDS011;8524;57.650;11.926;2022-08-23T06:27:33;5.27;;;2.00;;
16813;SDS011;8524;57.650;11.926;2022-08-23T06:30:00;4.27;;;2.20;;
16813;SDS011;8524;57.650;11.926;2022-08-23T06:32:27;3.87;;;2.10;;
16813;SDS011;8524;57.650;11.926;2022-08-23T06:34:55;3.50;;;2.30;;
16813;SDS011;8524;57.650;11.926;2022-08-23T06:37:22;3.00;;;1.90;;
16813;SDS011;8524;57.650;11.926;2022-08-23T06:39:49;4.17;;;1.90;;
16813;SDS011;8524;57.650;11.926;2022-08-23T06:42:18;2.93;;;1.50;;
16813;SDS011;8524;57.650;11.926;2022-08-23T06:44:46;4.23;;;1.60;;
16813;SDS011;8524;57.650;11.926;2022-08-23T06:47:14;3.20;;;1.90;;
16813;SDS011;8524;57.650;11.926;2022-08-23T06:49:42;4.37;;;1.70;;
16813;SDS011;8524;57.650;11.926;2022-08-23T06:52:09;4.67;;;1.90;;
16813;SDS011;8524;57.650;11.926;2022-08-23T06:54:36;2.63;;;1.50;;
16813;SDS011;8524;57.650;11.926;2022-08-23T06:57:04;4.90;;;1.63;;
16813;SDS011;8524;57.650;11.926;2022-08-23T06:59:31;3.60;;;1.77;;
16813;SDS011;8524;57.650;11.926;2022-08-23T07:02:00;4.43;;;1.60;;
16813;SDS011;8524;57.650;11.926;2022-08-23T07:04:30;2.83;;;1.67;;
16813;SDS011;8524;57.650;11.926;2022-08-23T07:06:59;2.67;;;1.80;;
16813;SDS011;8524;57.650;11.926;2022-08-23T07:09:27;3.33;;;1.57;;
16813;SDS011;8524;57.650;11.926;2022-08-23T07:11:54;4.63;;;2.10;;
16813;SDS011;8524;57.650;11.926;2022-08-23T07:14:22;2.57;;;1.50;;
16813;SDS011;8524;57.650;11.926;2022-08-23T07:16:50;2.30;;;1.55;;
16813;SDS011;8524;57.650;11.926;2022-08-23T07:19:21;4.67;;;1.83;;
16813;SDS011;8524;57.650;11.926;2022-08-23T07:21:51;3.63;;;1.80;;
16813;SDS011;8524;57.650;11.926;2022-08-23T07:24:18;2.80;;;1.67;;
16813;SDS011;8524;57.650;11.926;2022-08-23T07:26:47;3.00;;;1.50;;
16813;SDS011;8524;57.650;11.926;2022-08-23T07:29:17;1.83;;;1.30;;
16813;SDS011;8524;57.650;11.926;2022-08-23T07:31:46;4.53;;;1.83;;
16813;SDS011;8524;57.650;11.926;2022-08-23T07:34:15;4.23;;;1.67;;
16813;SDS011;8524;57.650;11.926;2022-08-23T07:36:47;4.00;;;1.70;;
16813;SDS011;8524;57.650;11.926;2022-08-23T07:39:18;2.57;;;1.50;;
16813;SDS011;8524;57.650;11.926;2022-08-23T07:41:50;3.97;;;1.67;;
16813;SDS011;8524;57.650;11.926;2022-08-23T07:44:21;2.17;;;1.60;;
16813;SDS011;8524;57.650;11.926;2022-08-23T07:46:48;3.90;;;1.50;;
16813;SDS011;8524;57.650;11.926;2022-08-23T07:49:15;3.40;;;1.53;;
16813;SDS011;8524;57.650;11.926;2022-08-23T07:51:45;3.90;;;1.40;;
16813;SDS011;8524;57.650;11.926;2022-08-23T07:54:14;1.43;;;1.23;;
16813;SDS011;8524;57.650;11.926;2022-08-23T07:56:42;2.38;;;1.30;;
16813;SDS011;8524;57.650;11.926;2022-08-23T07:59:11;3.73;;;1.40;;
16813;SDS011;8524;57.650;11.926;2022-08-23T08:01:42;1.47;;;1.20;;
16813;SDS011;8524;57.650;11.926;2022-08-23T08:04:14;3.30;;;1.30;;
16813;SDS011;8524;57.650;11.926;2022-08-23T08:06:42;1.60;;;1.23;;
16813;SDS011;8524;57.650;11.926;2022-08-23T08:09:14;2.63;;;1.40;;
16813;SDS011;8524;57.650;11.926;2022-08-23T08:11:47;3.03;;;1.43;;
16813;SDS011;8524;57.650;11.926;2022-08-23T08:14:17;2.60;;;1.20;;
16813;SDS011;8524;57.650;11.926;2022-08-23T08:16:46;1.87;;;1.00;;
16813;SDS011;8524;57.650;11.926;2022-08-23T08:19:15;3.13;;;1.20;;
16813;SDS011;8524;57.650;11.926;2022-08-23T08:21:44;2.63;;;1.10;;
16813;SDS011;8524;57.650;11.926;2022-08-23T08:24:13;1.98;;;1.15;;
16813;SDS011;8524;57.650;11.926;2022-08-23T08:26:42;3.03;;;1.30;;
16813;SDS011;8524;57.650;11.926;2022-08-23T08:29:10;2.97;;;1.10;;
16813;SDS011;8524;57.650;11.926;2022-08-23T08:31:38;2.50;;;1.20;;
16813;SDS011;8524;57.650;11.926;2022-08-23T08:34:06;2.40;;;1.20;;
16813;SDS011;8524;57.650;11.926;2022-08-23T08:36:35;2.77;;;1.03;;
16813;SDS011;8524;57.650;11.926;2022-08-23T08:39:06;2.90;;;1.10;;
16813;SDS011;8524;57.650;11.926;2022-08-23T08:41:41;2.43;;;1.00;;
16813;SDS011;8524;57.650;11.926;2022-08-23T08:44:30;2.97;;;1.10;;
16813;SDS011;8524;57.650;11.926;2022-08-23T08:47:05;2.10;;;0.90;;
16813;SDS011;8524;57.650;11.926;2022-08-23T08:49:36;3.23;;;1.37;;
16813;SDS011;8524;57.650;11.926;2022-08-23T08:52:13;4.20;;;1.53;;
16813;SDS011;8524;57.650;11.926;2022-08-23T08:54:45;2.67;;;1.10;;
16813;SDS011;8524;57.650;11.926;2022-08-23T08:57:15;1.67;;;1.03;;
16813;SDS011;8524;57.650;11.926;2022-08-23T08:59:47;1.33;;;1.10;;
16813;SDS011;8524;57.650;11.926;2022-08-23T09:02:28;3.67;;;1.03;;
16813;SDS011;8524;57.650;11.926;2022-08-23T09:04:57;2.30;;;0.90;;
16813;SDS011;8524;57.650;11.926;2022-08-23T09:07:33;2.00;;;0.90;;
16813;SDS011;8524;57.650;11.926;2022-08-23T09:10:36;2.33;;;1.33;;
16813;SDS011;8524;57.650;11.926;2022-08-23T09:13:38;2.03;;;1.00;;
16813;SDS011;8524;57.650;11.926;2022-08-23T09:16:25;2.90;;;1.20;;
16813;SDS011;8524;57.650;11.926;2022-08-23T09:19:01;2.30;;;0.90;;
16813;SDS011;8524;57.650;11.926;2022-08-23T09:21:30;1.13;;;0.93;;
16813;SDS011;8524;57.650;11.926;2022-08-23T09:24:07;2.30;;;1.10;;
16813;SDS011;8524;57.650;11.926;2022-08-23T09:26:38;2.72;;;1.30;;
16813;SDS011;8524;57.650;11.926;2022-08-23T09:29:10;3.23;;;1.33;;
16813;SDS011;8524;57.650;11.926;2022-08-23T09:31:45;1.07;;;0.97;;
16813;SDS011;8524;57.650;11.926;2022-08-23T09:34:15;1.77;;;1.10;;
16813;SDS011;8524;57.650;11.926;2022-08-23T09:36:45;2.83;;;1.13;;
16813;SDS011;8524;57.650;11.926;2022-08-23T09:39:26;2.07;;;1.00;;
16813;SDS011;8524;57.650;11.926;2022-08-23T09:41:57;2.83;;;1.20;;
16813;SDS011;8524;57.650;11.926;2022-08-23T09:44:36;1.93;;;1.10;;
16813;SDS011;8524;57.650;11.926;2022-08-23T09:47:08;1.93;;;1.10;;
16813;SDS011;8524;57.650;11.926;2022-08-23T09:49:37;2.77;;;0.90;;
16813;SDS011;8524;57.650;11.926;2022-08-23T09:52:16;2.73;;;1.13;;
16813;SDS011;8524;57.650;11.926;2022-08-23T09:54:56;2.80;;;0.80;;
16813;SDS011;8524;57.650;11.926;2022-08-23T09:57:31;3.70;;;1.40;;
16813;SDS011;8524;57.650;11.926;2022-08-23T10:00:00;3.47;;;1.30;;
16813;SDS011;8524;57.650;11.926;2022-08-23T10:02:45;1.73;;;0.90;;
16813;SDS011;8524;57.650;11.926;2022-08-23T10:05:16;1.90;;;1.10;;
16813;SDS011;8524;57.650;11.926;2022-08-23T10:07:52;3.27;;;1.00;;
16813;SDS011;8524;57.650;11.926;2022-08-23T10:10:23;2.07;;;0.90;;
16813;SDS011;8524;57.650;11.926;2022-08-23T10:12:56;2.13;;;1.13;;
16813;SDS011;8524;57.650;11.926;2022-08-23T10:15:25;2.63;;;1.20;;
16813;SDS011;8524;57.650;11.926;2022-08-23T10:18:01;1.67;;;1.07;;
16813;SDS011;8524;57.650;11.926;2022-08-23T10:20:34;1.43;;;1.00;;
16813;SDS011;8524;57.650;11.926;2022-08-23T10:25:59;1.92;;;1.08;;
16813;SDS011;8524;57.650;11.926;2022-08-23T10:28:31;3.55;;;1.40;;
16813;SDS011;8524;57.650;11.926;2022-08-23T10:31:24;2.42;;;1.00;;
16813;SDS011;8524;57.650;11.926;2022-08-23T10:34:01;1.77;;;1.00;;
16813;SDS011;8524;57.650;11.926;2022-08-23T10:36:46;2.22;;;1.20;;
16813;SDS011;8524;57.650;11.926;2022-08-23T10:39:21;2.33;;;1.35;;
16813;SDS011;8524;57.650;11.926;2022-08-23T10:41:58;1.40;;;0.90;;
16813;SDS011;8524;57.650;11.926;2022-08-23T10:44:34;1.35;;;0.90;;
16813;SDS011;8524;57.650;11.926;2022-08-23T10:47:14;1.50;;;1.05;;
16813;SDS011;8524;57.650;11.926;2022-08-23T10:49:49;3.17;;;1.10;;
16813;SDS011;8524;57.650;11.926;2022-08-23T10:52:21;2.90;;;1.10;;
16813;SDS011;8524;57.650;11.926;2022-08-23T10:54:54;2.00;;;1.10;;
16813;SDS011;8524;57.650;11.926;2022-08-23T10:57:31;2.85;;;1.00;;
16813;SDS011;8524;57.650;11.926;2022-08-23T11:00:03;0.77;;;0.77;;
16813;SDS011;8524;57.650;11.926;2022-08-23T11:02:37;1.45;;;0.98;;
16813;SDS011;8524;57.650;11.926;2022-08-23T11:05:16;2.50;;;1.20;;
16813;SDS011;8524;57.650;11.926;2022-08-23T11:07:54;2.72;;;1.10;;
16813;SDS011;8524;57.650;11.926;2022-08-23T11:10:25;1.65;;;1.00;;
16813;SDS011;8524;57.650;11.926;2022-08-23T11:12:59;2.08;;;1.10;;
16813;SDS011;8524;57.650;11.926;2022-08-23T11:15:38;2.13;;;0.93;;
16813;SDS011;8524;57.650;11.926;2022-08-23T11:21:06;2.45;;;1.20;;
16813;SDS011;8524;57.650;11.926;2022-08-23T11:27:00;2.50;;;1.15;;
16813;SDS011;8524;57.650;11.926;2022-08-23T11:29:30;1.38;;;1.08;;
16813;SDS011;8524;57.650;11.926;2022-08-23T11:32:10;2.58;;;1.30;;
16813;SDS011;8524;57.650;11.926;2022-08-23T11:34:47;2.22;;;1.10;;
16813;SDS011;8524;57.650;11.926;2022-08-23T11:37:23;2.25;;;1.10;;
16813;SDS011;8524;57.650;11.926;2022-08-23T11:40:03;2.65;;;1.30;;
16813;SDS011;8524;57.650;11.926;2022-08-23T11:42:43;3.90;;;1.35;;
16813;SDS011;8524;57.650;11.926;2022-08-23T11:45:21;1.70;;;1.10;;
16813;SDS011;8524;57.650;11.926;2022-08-23T11:48:05;4.78;;;1.33;;
16813;SDS011;8524;57.650;11.926;2022-08-23T11:50:44;2.70;;;1.25;;
16813;SDS011;8524;57.650;11.926;2022-08-23T11:53:43;2.03;;;0.85;;
16813;SDS011;8524;57.650;11.926;2022-08-23T11:56:28;2.78;;;1.17;;
16813;SDS011;8524;57.650;11.926;2022-08-23T11:59:11;1.77;;;1.17;;
16813;SDS011;8524;57.650;11.926;2022-08-23T12:01:48;2.35;;;1.02;;
16813;SDS011;8524;57.650;11.926;2022-08-23T12:04:29;2.05;;;1.20;;
16813;SDS011;8524;57.650;11.926;2022-08-23T12:07:02;2.55;;;1.25;;
16813;SDS011;8524;57.650;11.926;2022-08-23T12:09:52;3.92;;;1.25;;
16813;SDS011;8524;57.650;11.926;2022-08-23T12:15:07;2.50;;;1.38;;
16813;SDS011;8524;57.650;11.926;2022-08-23T12:20:39;3.22;;;1.27;;
16813;SDS011;8524;57.650;11.926;2022-08-23T12:25:57;2.22;;;1.30;;
16813;SDS011;8524;57.650;11.926;2022-08-23T12:28:31;2.70;;;1.08;;
16813;SDS011;8524;57.650;11.926;2022-08-23T12:31:16;1.85;;;1.20;;
16813;SDS011;8524;57.650;11.926;2022-08-23T12:33:51;2.35;;;1.40;;
16813;SDS011;8524;57.650;11.926;2022-08-23T12:36:29;3.97;;;1.55;;
16813;SDS011;8524;57.650;11.926;2022-08-23T12:39:04;3.42;;;1.23;;
16813;SDS011;8524;57.650;11.926;2022-08-23T12:41:34;2.60;;;1.30;;
16813;SDS011;8524;57.650;11.926;2022-08-23T12:44:18;2.20;;;1.23;;
16813;SDS011;8524;57.650;11.926;2022-08-23T12:46:48;3.00;;;0.98;;
16813;SDS011;8524;57.650;11.926;2022-08-23T12:49:24;2.15;;;1.25;;
16813;SDS011;8524;57.650;11.926;2022-08-23T12:51:56;2.08;;;1.00;;
16813;SDS011;8524;57.650;11.926;2022-08-23T12:54:32;2.90;;;1.38;;
16813;SDS011;8524;57.650;11.926;2022-08-23T12:57:01;2.50;;;1.25;;
16813;SDS011;8524;57.650;11.926;2022-08-23T12:59:36;2.42;;;1.25;;
16813;SDS011;8524;57.650;11.926;2022-08-23T13:02:07;3.75;;;1.50;;
16813;SDS011;8524;57.650;11.926;2022-08-23T13:04:38;1.80;;;1.00;;
16813;SDS011;8524;57.650;11.926;2022-08-23T13:07:09;2.65;;;1.27;;
16813;SDS011;8524;57.650;11.926;2022-08-23T13:09:42;2.08;;;1.25;;
16813;SDS011;8524;57.650;11.926;2022-08-23T13:12:10;1.65;;;1.08;;
16813;SDS011;8524;57.650;11.926;2022-08-23T13:14:41;2.28;;;1.23;;
16813;SDS011;8524;57.650;11.926;2022-08-23T13:17:11;2.63;;;1.23;;
16813;SDS011;8524;57.650;11.926;2022-08-23T13:20:17;2.65;;;1.33;;
16813;SDS011;8524;57.650;11.926;2022-08-23T13:22:57;2.60;;;1.10;;
16813;SDS011;8524;57.650;11.926;2022-08-23T13:25:27;2.67;;;1.40;;
16813;SDS011;8524;57.650;11.926;2022-08-23T13:27:57;1.92;;;1.17;;
16813;SDS011;8524;57.650;11.926;2022-08-23T13:30:26;1.90;;;1.20;;
16813;SDS011;8524;57.650;11.926;2022-08-23T13:35:44;2.05;;;1.02;;
16813;SDS011;8524;57.650;11.926;2022-08-23T13:38:15;3.55;;;1.10;;
16813;SDS011;8524;57.650;11.926;2022-08-23T13:40:51;1.60;;;1.00;;
16813;SDS011;8524;57.650;11.926;2022-08-23T13:43:24;4.90;;;1.35;;
16813;SDS011;8524;57.650;11.926;2022-08-23T13:45:54;2.47;;;1.08;;
16813;SDS011;8524;57.650;11.926;2022-08-23T13:48:23;1.45;;;1.00;;
16813;SDS011;8524;57.650;11.926;2022-08-23T13:53:46;1.92;;;1.13;;
16813;SDS011;8524;57.650;11.926;2022-08-23T13:56:13;2.05;;;1.15;;
16813;SDS011;8524;57.650;11.926;2022-08-23T13:58:40;2.05;;;1.40;;
16813;SDS011;8524;57.650;11.926;2022-08-23T14:01:18;1.98;;;1.20;;
16813;SDS011;8524;57.650;11.926;2022-08-23T14:03:46;2.55;;;1.23;;
16813;SDS011;8524;57.650;11.926;2022-08-23T14:06:13;2.03;;;1.20;;
16813;SDS011;8524;57.650;11.926;2022-08-23T14:08:40;3.88;;;1.40;;
16813;SDS011;8524;57.650;11.926;2022-08-23T14:11:09;2.10;;;1.05;;
16813;SDS011;8524;57.650;11.926;2022-08-23T14:13:38;3.33;;;1.40;;
16813;SDS011;8524;57.650;11.926;2022-08-23T14:16:06;1.77;;;1.20;;
16813;SDS011;8524;57.650;11.926;2022-08-23T14:18:34;1.95;;;1.30;;
16813;SDS011;8524;57.650;11.926;2022-08-23T14:21:01;2.50;;;1.20;;
16813;SDS011;8524;57.650;11.926;2022-08-23T14:23:29;3.25;;;1.10;;
16813;SDS011;8524;57.650;11.926;2022-08-23T14:25:55;2.78;;;1.20;;
16813;SDS011;8524;57.650;11.926;2022-08-23T14:28:26;1.73;;;1.00;;
16813;SDS011;8524;57.650;11.926;2022-08-23T14:30:55;2.15;;;1.30;;
16813;SDS011;8524;57.650;11.926;2022-08-23T14:33:22;1.90;;;1.20;;
16813;SDS011;8524;57.650;11.926;2022-08-23T14:35:49;1.60;;;1.00;;
16813;SDS011;8524;57.650;11.926;2022-08-23T14:38:18;2.17;;;1.30;;
16813;SDS011;8524;57.650;11.926;2022-08-23T14:40:47;3.38;;;1.17;;
16813;SDS011;8524;57.650;11.926;2022-08-23T14:43:18;3.00;;;1.17;;
16813;SDS011;8524;57.650;11.926;2022-08-23T14:45:47;2.05;;;1.30;;
16813;SDS011;8524;57.650;11.926;2022-08-23T14:48:17;1.77;;;1.27;;
16813;SDS011;8524;57.650;11.926;2022-08-23T14:50:44;1.90;;;1.20;;
16813;SDS011;8524;57.650;11.926;2022-08-23T14:53:13;2.55;;;1.50;;
16813;SDS011;8524;57.650;11.926;2022-08-23T14:55:43;2.50;;;1.40;;
16813;SDS011;8524;57.650;11.926;2022-08-23T14:58:13;2.80;;;1.20;;
16813;SDS011;8524;57.650;11.926;2022-08-23T15:00:40;2.60;;;1.20;;
16813;SDS011;8524;57.650;11.926;2022-08-23T15:03:10;2.40;;;1.30;;
16813;SDS011;8524;57.650;11.926;2022-08-23T15:05:41;1.63;;;1.20;;
16813;SDS011;8524;57.650;11.926;2022-08-23T15:08:08;2.47;;;1.30;;
16813;SDS011;8524;57.650;11.926;2022-08-23T15:10:35;4.13;;;1.10;;
16813;SDS011;8524;57.650;11.926;2022-08-23T15:13:02;2.45;;;1.30;;
16813;SDS011;8524;57.650;11.926;2022-08-23T15:15:29;2.75;;;1.35;;
16813;SDS011;8524;57.650;11.926;2022-08-23T15:17:59;2.20;;;1.33;;
16813;SDS011;8524;57.650;11.926;2022-08-23T15:20:31;1.80;;;1.10;;
16813;SDS011;8524;57.650;11.926;2022-08-23T15:23:01;2.28;;;1.33;;
16813;SDS011;8524;57.650;11.926;2022-08-23T15:25:29;1.45;;;1.00;;
16813;SDS011;8524;57.650;11.926;2022-08-23T15:27:58;2.35;;;1.27;;
16813;SDS011;8524;57.650;11.926;2022-08-23T15:30:26;1.70;;;1.00;;
16813;SDS011;8524;57.650;11.926;2022-08-23T15:32:53;2.13;;;1.05;;
16813;SDS011;8524;57.650;11.926;2022-08-23T15:35:21;2.63;;;1.45;;